Time;durP1;ratioP1;P1;durP2;ratioP2;P2;SDS_P1;SDS_P2;PMS_P1;PMS_P2;Temp;Humidity;BMP_temperature;BMP_pressure;BME280_temperature;BME280_humidity;BME280_pressure;Samples;Min_cycle;Max_cycle;Signal;HPM_P1;HPM_P2
2023/12/26 00:02:15;;;;;;;;;61.50;49.25;;;;;10.68;35.61;99412.13;5068235;28;9627;-77
2023/12/26 00:04:44;;;;;;;;;58.75;49.25;;;;;10.67;35.83;99417.41;5068113;28;8862;-77
2023/12/26 00:07:13;;;;;;;;;65.25;51.00;;;;;10.68;35.56;99411.28;5058993;28;8899;-76
2023/12/26 00:09:42;;;;;;;;;64.00;53.00;;;;;10.60;35.92;99408.84;5052917;28;8854;-76
2023/12/26 00:12:11;;;;;;;;;67.25;53.75;;;;;10.62;35.88;99408.81;5067392;28;8881;-77
2023/12/26 00:14:42;;;;;;;;;61.00;51.00;;;;;10.62;35.83;99406.19;5066966;28;8866;-75
2023/12/26 00:17:11;;;;;;;;;62.00;50.00;;;;;10.62;35.92;99417.53;5044850;28;9615;-77
2023/12/26 00:19:41;;;;;;;;;63.50;50.50;;;;;10.64;36.08;99410.47;4997272;28;8884;-74
2023/12/26 00:22:10;;;;;;;;;67.00;51.25;;;;;10.63;35.66;99414.00;5063396;28;8838;-76
2023/12/26 00:24:39;;;;;;;;;67.75;52.50;;;;;10.57;35.92;99411.53;5038462;28;8843;-75
2023/12/26 00:27:08;;;;;;;;;61.75;50.00;;;;;10.59;36.32;99412.34;5054955;28;8866;-76
2023/12/26 00:29:38;;;;;;;;;61.00;50.25;;;;;10.57;36.15;99409.75;5051793;28;8869;-74
2023/12/26 00:32:08;;;;;;;;;58.00;48.00;;;;;10.57;36.45;99406.25;5048793;28;8845;-75
2023/12/26 00:34:37;;;;;;;;;54.75;45.25;;;;;10.52;36.28;99410.75;5048123;28;8853;-75
2023/12/26 00:37:07;;;;;;;;;53.50;44.25;;;;;10.44;36.75;99413.56;5063778;28;8873;-79
2023/12/26 00:39:37;;;;;;;;;54.50;44.25;;;;;10.37;37.09;99412.84;5046919;28;9599;-75
2023/12/26 00:42:06;;;;;;;;;54.75;44.50;;;;;10.43;36.84;99409.22;5016699;28;8839;-74
2023/12/26 00:44:40;;;;;;;;;55.25;44.50;;;;;10.44;36.92;99403.03;4997462;28;8988;-74
2023/12/26 00:47:10;;;;;;;;;61.75;48.75;;;;;10.40;36.95;99411.91;5024517;28;8846;-76
2023/12/26 00:49:40;;;;;;;;;52.50;44.00;;;;;10.30;37.22;99413.88;4976505;28;9001;-76
2023/12/26 00:52:09;;;;;;;;;51.75;40.75;;;;;10.32;37.08;99406.81;5044387;28;8932;-73
2023/12/26 00:54:39;;;;;;;;;50.50;42.25;;;;;10.35;37.05;99417.28;5033799;28;8848;-78
2023/12/26 00:57:08;;;;;;;;;49.00;41.50;;;;;10.39;36.79;99415.44;4990310;28;9616;-75
2023/12/26 00:59:37;;;;;;;;;49.25;42.50;;;;;10.37;36.94;99419.88;4990150;28;8884;-75
2023/12/26 01:02:06;;;;;;;;;52.00;43.00;;;;;10.35;37.31;99419.03;4988843;28;8866;-76
2023/12/26 01:04:37;;;;;;;;;50.25;40.50;;;;;10.38;37.11;99427.69;5005230;28;8893;-75
2023/12/26 01:07:06;;;;;;;;;49.25;40.50;;;;;10.38;37.05;99421.59;4958073;28;8888;-74
2023/12/26 01:09:35;;;;;;;;;46.00;38.50;;;;;10.31;37.12;99425.25;4973196;28;9751;-75
2023/12/26 01:12:05;;;;;;;;;41.25;36.25;;;;;10.31;37.31;99433.13;4990304;28;8858;-76
2023/12/26 01:14:35;;;;;;;;;49.75;39.00;;;;;10.26;37.39;99435.84;4973752;28;8874;-76
2023/12/26 01:17:05;;;;;;;;;47.25;39.00;;;;;10.34;37.11;99436.53;5012031;28;8899;-74
2023/12/26 01:19:36;;;;;;;;;38.00;35.25;;;;;10.35;36.92;99430.41;5015407;28;8846;-75
2023/12/26 01:22:05;;;;;;;;;53.75;43.25;;;;;10.36;36.99;99424.25;4978199;28;8855;-77
2023/12/26 01:24:35;;;;;;;;;44.00;38.75;;;;;10.34;37.17;99419.94;4992655;28;9655;-75
2023/12/26 01:27:04;;;;;;;;;48.25;39.25;;;;;10.38;36.69;99424.22;4992582;28;8871;-76
2023/12/26 01:29:33;;;;;;;;;45.75;38.25;;;;;10.46;36.55;99422.25;4961173;28;8879;-74
2023/12/26 01:32:02;;;;;;;;;47.25;41.00;;;;;10.48;36.83;99422.25;4944806;28;8879;-75
2023/12/26 01:34:32;;;;;;;;;45.00;39.00;;;;;10.50;36.65;99423.94;5029126;28;8993;-75
2023/12/26 01:37:02;;;;;;;;;49.25;42.00;;;;;10.46;36.45;99414.38;5052159;28;8859;-74
2023/12/26 01:39:32;;;;;;;;;45.25;38.75;;;;;10.54;36.24;99414.25;5051908;28;8868;-76
2023/12/26 01:42:01;;;;;;;;;50.25;42.25;;;;;10.58;36.12;99408.00;5068507;28;8929;-79
2023/12/26 01:44:30;;;;;;;;;50.75;41.50;;;;;10.62;36.41;99408.81;5068519;28;8883;-74
2023/12/26 01:47:00;;;;;;;;;55.25;42.00;;;;;10.58;36.31;99406.22;5051660;28;8871;-75
2023/12/26 01:49:31;;;;;;;;;56.50;45.25;;;;;10.42;36.48;99409.25;5059378;28;8884;-76
2023/12/26 01:52:00;;;;;;;;;54.75;46.75;;;;;10.46;36.42;99401.25;5048887;28;8849;-76
2023/12/26 01:54:34;;;;;;;;;60.50;50.75;;;;;10.42;36.52;99406.63;5066525;28;8865;-75
2023/12/26 01:57:06;;;;;;;;;70.50;55.00;;;;;10.33;36.90;99407.69;5070547;28;8888;-75
2023/12/26 01:59:36;;;;;;;;;73.75;56.50;;;;;10.30;37.10;99399.88;5086993;28;8876;-76
2023/12/26 02:02:06;;;;;;;;;69.33;56.33;;;;;10.16;37.42;99406.31;5053709;28;8870;-74
2023/12/26 02:04:38;;;;;;;;;67.00;53.25;;;;;10.08;37.41;99404.72;5063251;28;8985;-74
2023/12/26 02:07:08;;;;;;;;;64.25;52.25;;;;;9.93;37.55;99396.28;5055512;28;8989;-74
2023/12/26 02:09:41;;;;;;;;;67.00;53.50;;;;;9.80;37.77;99400.03;5069456;28;8846;-76
2023/12/26 02:12:10;;;;;;;;;51.25;42.25;;;;;9.82;37.57;99393.88;5080550;28;8869;-74
2023/12/26 02:14:40;;;;;;;;;67.00;52.50;;;;;9.93;37.80;99395.41;5049361;28;8853;-76
2023/12/26 02:17:13;;;;;;;;;57.00;47.00;;;;;10.02;37.41;99384.72;5050609;28;8873;-77
2023/12/26 02:19:43;;;;;;;;;68.75;56.00;;;;;10.05;37.67;99394.28;5070168;28;8841;-74
2023/12/26 02:22:12;;;;;;;;;60.00;48.50;;;;;10.04;37.37;99389.94;5053770;28;8873;-74
2023/12/26 02:24:44;;;;;;;;;70.25;56.00;;;;;10.10;37.57;99393.28;5017824;28;8876;-77
2023/12/26 02:27:17;;;;;;;;;66.50;52.50;;;;;10.10;37.34;99379.28;5049303;28;8880;-75
2023/12/26 02:29:50;;;;;;;;;68.75;55.25;;;;;10.08;37.63;99376.69;5053990;28;8868;-75
2023/12/26 02:32:20;;;;;;;;;70.75;54.00;;;;;10.06;37.87;99377.63;5021104;28;8849;-74
2023/12/26 02:34:55;;;;;;;;;59.75;49.00;;;;;10.06;37.77;99377.63;5055157;28;8865;-75
2023/12/26 02:37:25;;;;;;;;;63.00;52.25;;;;;10.06;37.58;99382.88;5065491;28;8930;-77
2023/12/26 02:39:56;;;;;;;;;56.00;48.00;;;;;10.02;37.72;99371.56;5050348;28;8922;-77
2023/12/26 02:42:29;;;;;;;;;59.50;48.50;;;;;10.01;37.69;99380.38;5016691;28;8953;-74
2023/12/26 02:44:58;;;;;;;;;59.75;50.00;;;;;9.98;37.61;99386.53;5048566;28;8969;-74
2023/12/26 02:47:28;;;;;;;;;60.25;49.75;;;;;9.98;37.82;99378.66;5032481;28;8833;-74
2023/12/26 02:49:57;;;;;;;;;64.50;51.75;;;;;9.96;37.76;99374.34;4983867;28;8869;-75
2023/12/26 02:52:26;;;;;;;;;62.00;49.25;;;;;9.94;37.68;99371.75;5051164;28;8869;-76
2023/12/26 02:54:57;;;;;;;;;62.25;50.50;;;;;9.93;37.92;99374.41;5065407;28;8869;-75
2023/12/26 02:57:26;;;;;;;;;61.25;48.75;;;;;9.89;37.90;99370.13;5051368;28;8918;-75
2023/12/26 02:59:55;;;;;;;;;61.00;49.00;;;;;9.85;37.98;99374.56;5067818;28;8943;-76
2023/12/26 03:02:24;;;;;;;;;46.00;39.25;;;;;9.80;38.05;99372.03;5051092;28;8880;-76
2023/12/26 03:04:53;;;;;;;;;56.50;45.50;;;;;9.79;37.96;99377.31;5051785;28;8915;-75
2023/12/26 03:07:22;;;;;;;;;59.00;49.50;;;;;9.80;38.18;99372.03;5066829;28;8850;-75
2023/12/26 03:09:52;;;;;;;;;46.00;39.75;;;;;9.80;37.88;99379.03;5085031;28;8874;-75
2023/12/26 03:12:22;;;;;;;;;50.75;42.00;;;;;9.78;37.96;99365.97;5068840;28;8917;-77
2023/12/26 03:14:52;;;;;;;;;53.75;44.75;;;;;9.79;37.93;99372.94;5051654;28;8854;-75
2023/12/26 03:17:21;;;;;;;;;54.25;43.00;;;;;9.79;38.17;99378.19;5051823;28;8883;-77
2023/12/26 03:19:50;;;;;;;;;45.75;38.75;;;;;9.76;37.99;99372.13;5070743;28;8855;-77
2023/12/26 03:22:20;;;;;;;;;55.75;46.50;;;;;9.72;38.17;99371.31;5046365;28;8856;-75
2023/12/26 03:24:49;;;;;;;;;54.25;43.25;;;;;9.70;38.25;99373.09;5049148;28;8856;-77
2023/12/26 03:27:18;;;;;;;;;50.75;43.00;;;;;9.59;38.57;99372.47;5014711;28;8934;-76
2023/12/26 03:29:50;;;;;;;;;46.50;40.00;;;;;9.59;38.45;99372.47;5047858;28;8829;-75
2023/12/26 03:32:20;;;;;;;;;49.50;38.25;;;;;9.65;38.33;99374.97;5064288;28;8849;-74
2023/12/26 03:34:50;;;;;;;;;51.25;44.25;;;;;9.68;38.32;99368.78;5048959;28;8871;-75
2023/12/26 03:37:19;;;;;;;;;52.75;43.00;;;;;9.55;38.71;99376.88;5016341;28;8856;-75
2023/12/26 03:39:49;;;;;;;;;49.50;38.00;;;;;9.54;38.66;99374.28;5006768;28;8995;-76
2023/12/26 03:42:18;;;;;;;;;46.50;39.00;;;;;9.65;38.39;99367.13;4974738;28;8952;-75
2023/12/26 03:44:48;;;;;;;;;47.00;38.50;;;;;9.73;38.37;99367.81;5013575;28;8937;-76
2023/12/26 03:47:18;;;;;;;;;46.25;37.50;;;;;9.74;38.35;99372.16;4972938;28;8877;-75
2023/12/26 03:49:47;;;;;;;;;36.80;35.00;;;;;9.79;38.23;99366.81;4986942;28;8936;-75
2023/12/26 03:52:17;;;;;;;;;31.80;30.80;;;;;9.85;38.34;99368.44;4924600;28;9015;-75
2023/12/26 03:54:46;;;;;;;;;38.75;35.75;;;;;9.84;38.24;99359.72;4970876;28;9024;-77
2023/12/26 03:57:15;;;;;;;;;42.75;35.50;;;;;9.72;38.45;99370.47;4986711;28;9706;-74
2023/12/26 03:59:44;;;;;;;;;40.00;36.25;;;;;9.73;38.55;99367.81;4970513;28;9105;-76
2023/12/26 04:02:13;;;;;;;;;36.75;34.00;;;;;9.77;38.41;99366.84;4930706;28;8888;-77
2023/12/26 04:04:44;;;;;;;;;33.00;31.40;;;;;9.85;38.37;99373.69;4909529;29;9036;-76
2023/12/26 04:07:13;;;;;;;;;36.75;33.50;;;;;9.82;38.80;99367.63;4912322;29;8886;-74
2023/12/26 04:09:42;;;;;;;;;34.50;33.25;;;;;9.92;38.83;99370.06;4901010;28;8869;-78
2023/12/26 04:12:12;;;;;;;;;38.25;35.75;;;;;9.89;39.02;99364.88;4951653;28;8854;-77
2023/12/26 04:14:41;;;;;;;;;45.75;38.50;;;;;9.87;38.84;99370.13;4947525;28;9666;-76
2023/12/26 04:17:10;;;;;;;;;38.00;35.00;;;;;9.84;38.94;99371.97;4947844;28;9624;-74
2023/12/26 04:19:39;;;;;;;;;45.25;37.00;;;;;9.88;38.86;99371.03;4947388;28;8867;-74
2023/12/26 04:22:10;;;;;;;;;41.75;37.00;;;;;9.98;38.77;99364.66;4947318;28;8964;-74
2023/12/26 04:24:40;;;;;;;;;38.00;35.50;;;;;9.95;38.66;99364.72;4963471;28;9539;-75
2023/12/26 04:27:09;;;;;;;;;32.25;30.50;;;;;9.99;38.94;99363.78;4967027;28;8872;-75
2023/12/26 04:29:38;;;;;;;;;37.00;33.75;;;;;10.00;38.59;99366.34;4967263;28;8863;-74
2023/12/26 04:32:10;;;;;;;;;26.00;23.50;;;;;10.17;38.22;99367.75;4967007;28;8887;-75
2023/12/26 04:34:40;;;;;;;;;42.67;37.00;;;;;10.23;38.24;99369.38;4969993;28;8954;-75
2023/12/26 04:37:10;;;;;;;;;48.25;37.25;;;;;10.39;38.08;99378.66;5025117;28;8841;-75
2023/12/26 04:39:40;;;;;;;;;43.00;38.00;;;;;10.33;37.90;99377.03;5017614;28;8824;-75
2023/12/26 04:42:10;;;;;;;;;44.25;37.00;;;;;10.38;37.91;99372.50;5008422;28;8953;-76
2023/12/26 04:44:40;;;;;;;;;53.75;44.25;;;;;10.45;37.82;99375.03;5016111;28;9031;-76
2023/12/26 04:47:09;;;;;;;;;43.75;38.00;;;;;10.46;37.52;99376.72;5050039;28;8867;-75
2023/12/26 04:49:38;;;;;;;;;41.75;35.00;;;;;10.33;38.00;99376.16;5050000;28;8858;-77
2023/12/26 04:52:07;;;;;;;;;41.00;36.00;;;;;10.22;38.11;99376.41;5050017;28;8862;-76
2023/12/26 04:54:38;;;;;;;;;43.75;37.25;;;;;10.21;38.29;99372.91;5054867;28;8832;-77
2023/12/26 04:57:10;;;;;;;;;48.50;40.50;;;;;9.95;38.81;99377.84;5069058;28;8851;-75
2023/12/26 04:59:39;;;;;;;;;39.50;34.75;;;;;10.06;38.83;99372.38;5049952;28;9576;-74
2023/12/26 05:02:08;;;;;;;;;43.25;36.25;;;;;9.97;39.05;99369.06;5066223;28;8846;-75
2023/12/26 05:04:39;;;;;;;;;41.00;36.25;;;;;10.03;38.88;99368.06;5066811;28;8882;-75
2023/12/26 05:07:08;;;;;;;;;38.50;34.00;;;;;10.11;38.63;99363.50;5050134;28;8879;-75
2023/12/26 05:09:39;;;;;;;;;38.50;35.25;;;;;10.11;38.75;99368.75;5065154;28;8970;-76
2023/12/26 05:12:08;;;;;;;;;39.50;32.25;;;;;10.23;38.67;99356.25;5083281;28;8854;-76
2023/12/26 05:14:38;;;;;;;;;35.40;33.00;;;;;10.30;38.47;99360.47;5049396;28;8850;-75
2023/12/26 05:17:07;;;;;;;;;39.75;34.75;;;;;10.28;38.68;99362.28;5083022;28;8866;-77
2023/12/26 05:19:36;;;;;;;;;47.25;39.75;;;;;10.24;38.46;99366.72;5083013;28;8865;-78
2023/12/26 05:22:05;;;;;;;;;49.75;41.25;;;;;10.13;39.03;99355.59;5057778;28;8976;-74
2023/12/26 05:24:35;;;;;;;;;49.00;41.25;;;;;10.24;38.79;99363.25;5070734;28;8859;-74
2023/12/26 05:27:22;;;;;;;;;51.75;41.25;;;;;10.30;38.46;99361.31;5046176;28;8911;-76
2023/12/26 05:29:51;;;;;;;;;41.75;37.00;;;;;10.23;38.72;99364.13;5029571;28;8849;-76
2023/12/26 05:32:20;;;;;;;;;47.75;39.25;;;;;10.23;39.02;99364.13;5062957;28;8837;-75
2023/12/26 05:34:55;;;;;;;;;55.75;45.25;;;;;10.24;38.88;99368.50;5068165;28;8865;-77
2023/12/26 05:37:25;;;;;;;;;61.25;49.00;;;;;10.30;38.63;99374.47;5069292;28;8835;-76
2023/12/26 05:39:55;;;;;;;;;53.67;43.67;;;;;10.34;38.62;99365.59;5050752;28;9680;-76
2023/12/26 05:42:26;;;;;;;;;55.00;43.75;;;;;10.42;38.78;99372.47;5086945;28;8881;-76
2023/12/26 05:44:55;;;;;;;;;51.75;41.75;;;;;10.46;38.36;99371.47;5069652;28;9599;-76
2023/12/26 05:47:24;;;;;;;;;51.00;42.50;;;;;10.47;38.51;99367.97;5066138;28;8923;-76
2023/12/26 05:49:57;;;;;;;;;42.50;38.00;;;;;10.51;38.52;99373.09;5066473;28;8837;-76
2023/12/26 05:52:27;;;;;;;;;54.75;44.25;;;;;10.51;38.49;99367.84;5033255;28;8865;-77
2023/12/26 05:54:57;;;;;;;;;55.50;45.00;;;;;10.47;38.78;99373.22;5067785;28;8837;-77
2023/12/26 05:57:27;;;;;;;;;53.00;42.50;;;;;10.48;38.72;99369.69;5050914;28;8853;-75
2023/12/26 05:59:56;;;;;;;;;55.50;45.75;;;;;10.46;38.51;99369.72;5032447;28;8861;-76
2023/12/26 06:02:25;;;;;;;;;60.00;49.50;;;;;10.46;38.68;99374.97;5065479;28;8903;-75
2023/12/26 06:04:55;;;;;;;;;60.25;47.50;;;;;10.46;38.82;99374.97;5050069;28;8887;-76
2023/12/26 06:07:24;;;;;;;;;56.25;46.50;;;;;10.46;38.50;99376.72;5068912;28;9615;-77
2023/12/26 06:09:54;;;;;;;;;58.00;48.00;;;;;10.47;38.59;99374.06;5035474;28;8848;-75
2023/12/26 06:12:23;;;;;;;;;58.75;47.75;;;;;10.49;38.72;99374.91;4995585;28;8897;-75
2023/12/26 06:14:54;;;;;;;;;61.50;48.50;;;;;10.46;38.77;99372.34;5034467;28;9056;-76
2023/12/26 06:17:23;;;;;;;;;57.50;47.75;;;;;10.44;38.79;99374.13;5017132;28;8883;-78
2023/12/26 06:19:53;;;;;;;;;56.75;47.25;;;;;10.43;38.98;99371.56;5015180;28;8836;-77
2023/12/26 06:22:22;;;;;;;;;64.25;51.25;;;;;10.40;38.81;99372.50;5048147;28;8863;-74
2023/12/26 06:24:51;;;;;;;;;63.50;50.25;;;;;10.37;38.72;99376.06;4998507;28;9049;-76
2023/12/26 06:27:21;;;;;;;;;59.25;49.25;;;;;10.32;38.79;99375.28;5027985;28;8857;-76
2023/12/26 06:29:50;;;;;;;;;62.25;51.00;;;;;10.29;39.04;99374.50;5030878;28;8942;-75
2023/12/26 06:32:21;;;;;;;;;66.25;53.00;;;;;10.29;39.20;99371.88;5029100;28;8843;-74
2023/12/26 06:34:50;;;;;;;;;68.50;50.75;;;;;10.24;39.47;99377.22;4998871;28;8827;-75
2023/12/26 06:37:19;;;;;;;;;65.25;52.25;;;;;10.20;39.38;99371.19;5036595;28;8873;-74
2023/12/26 06:39:49;;;;;;;;;52.75;44.25;;;;;10.16;39.46;99382.66;5019472;28;9593;-77
2023/12/26 06:42:18;;;;;;;;;51.75;43.75;;;;;10.14;39.67;99383.56;5033470;28;8878;-75
2023/12/26 06:44:47;;;;;;;;;51.25;42.00;;;;;9.96;39.87;99382.22;5047862;28;8870;-75
2023/12/26 06:47:16;;;;;;;;;54.75;45.75;;;;;9.91;40.30;99389.31;5024935;28;8913;-75
2023/12/26 06:49:49;;;;;;;;;53.75;45.00;;;;;9.95;40.40;99391.88;5070265;28;8973;-75
2023/12/26 06:52:19;;;;;;;;;57.75;45.75;;;;;10.07;40.33;99400.38;5088892;28;8873;-75
2023/12/26 06:54:48;;;;;;;;;53.50;43.75;;;;;10.12;40.49;99402.03;5053127;28;8858;-75
2023/12/26 06:57:17;;;;;;;;;53.75;42.00;;;;;10.23;40.50;99400.91;5086253;28;8916;-80
2023/12/26 06:59:48;;;;;;;;;49.25;40.00;;;;;10.29;40.39;99408.66;5066773;28;8869;-78
2023/12/26 07:02:18;;;;;;;;;43.50;38.25;;;;;10.37;40.25;99409.38;5001252;28;8873;-81
2023/12/26 07:04:49;;;;;;;;;46.50;40.00;;;;;10.43;40.25;99411.84;5064490;28;8895;-77
2023/12/26 07:07:18;;;;;;;;;53.00;42.00;;;;;10.51;40.01;99406.41;5076754;28;8870;-76
2023/12/26 07:09:47;;;;;;;;;32.50;30.50;;;;;10.59;39.94;99410.59;5050704;28;9596;-78
2023/12/26 07:12:16;;;;;;;;;53.25;44.00;;;;;10.67;39.82;99407.78;5067729;28;8900;-76
2023/12/26 07:14:46;;;;;;;;;52.75;44.50;;;;;10.75;39.61;99413.75;5047281;28;8933;-79
2023/12/26 07:17:15;;;;;;;;;47.75;41.75;;;;;10.86;39.41;99420.50;5059118;28;8867;-78
2023/12/26 07:19:45;;;;;;;;;58.00;47.75;;;;;10.93;38.98;99412.44;5069941;28;8862;-79
2023/12/26 07:22:15;;;;;;;;;45.25;38.75;;;;;11.02;38.91;99415.75;5068530;28;8961;-78
2023/12/26 07:24:44;;;;;;;;;50.25;42.25;;;;;11.10;38.55;99416.41;5068660;28;9000;-77
2023/12/26 07:27:13;;;;;;;;;48.00;42.00;;;;;11.19;38.13;99410.91;5076019;28;8850;-78
2023/12/26 07:29:43;;;;;;;;;55.00;45.50;;;;;11.29;38.34;99415.03;5064587;28;8987;-77
2023/12/26 07:32:11;;;;;;;;;62.00;48.67;;;;;11.40;38.20;99411.28;5069546;28;9005;-79
2023/12/26 07:34:41;;;;;;;;;47.25;39.50;;;;;11.37;38.10;99418.34;5047963;28;8877;-80
2023/12/26 07:37:10;;;;;;;;;50.00;42.75;;;;;11.47;38.19;99412.84;5029230;28;8934;-78
2023/12/26 07:39:41;;;;;;;;;57.25;47.50;;;;;11.61;38.25;99415.09;5064948;28;8863;-80
2023/12/26 07:42:10;;;;;;;;;72.67;58.33;;;;;11.72;38.25;99418.28;5048951;28;8853;-78
2023/12/26 07:44:40;;;;;;;;;67.75;54.75;;;;;11.81;37.85;99410.13;5057496;28;9293;-81
2023/12/26 07:47:09;;;;;;;;;62.75;49.25;;;;;11.92;37.79;99413.38;5068750;28;8838;-78
2023/12/26 07:49:39;;;;;;;;;66.25;53.75;;;;;12.03;37.40;99414.81;5068206;28;8842;-79
2023/12/26 07:52:08;;;;;;;;;66.00;53.25;;;;;12.11;37.46;99408.44;5069620;28;8866;-79
2023/12/26 07:54:37;;;;;;;;;66.00;52.00;;;;;12.23;37.54;99411.59;5051139;28;8865;-77
2023/12/26 07:57:07;;;;;;;;;67.25;52.75;;;;;12.32;37.34;99411.34;5074058;28;8885;-80
2023/12/26 07:59:37;;;;;;;;;76.67;61.67;;;;;12.39;37.21;99409.34;5057539;28;8858;-79
2023/12/26 08:02:06;;;;;;;;;75.00;64.25;;;;;12.50;36.91;99409.88;5019645;28;9278;-80
2023/12/26 08:04:35;;;;;;;;;72.33;56.00;;;;;12.61;36.57;99409.56;5051574;28;9792;-79
2023/12/26 08:07:05;;;;;;;;;72.33;59.00;;;;;12.71;36.79;99416.25;5051696;28;9246;-79
2023/12/26 08:09:35;;;;;;;;;75.25;62.50;;;;;12.84;36.74;99408.81;5067922;28;9283;-83
2023/12/26 08:12:04;;;;;;;;;74.00;60.67;;;;;12.94;36.66;99407.66;5067973;28;9632;-77
2023/12/26 08:14:55;;;;;;;;;74.00;60.00;;;;;13.09;36.26;99408.91;5032567;28;9174;-79
2023/12/26 08:17:24;;;;;;;;;66.67;53.33;;;;;13.20;36.30;99411.19;5042636;28;9295;-80
2023/12/26 08:19:54;;;;;;;;;73.00;57.67;;;;;13.27;36.11;99407.44;5010031;28;9471;-78
2023/12/26 08:22:22;;;;;;;;;74.50;62.00;;;;;13.37;36.28;99405.31;5010120;28;9252;-79
2023/12/26 08:24:52;;;;;;;;;74.33;61.67;;;;;13.46;36.08;99407.66;5009794;28;9663;-79
2023/12/26 08:27:22;;;;;;;;;76.67;62.00;;;;;13.56;35.85;99413.47;5010378;28;9491;-77
2023/12/26 08:29:52;;;;;;;;;75.75;62.50;;;;;13.62;35.66;99413.22;5026228;28;10318;-79
2023/12/26 08:32:22;;;;;;;;;70.67;56.00;;;;;13.70;35.38;99409.41;4993324;28;9727;-80
2023/12/26 08:34:52;;;;;;;;;74.00;58.75;;;;;13.77;35.34;99418.00;5026055;28;9309;-77
2023/12/26 08:37:21;;;;;;;;;76.75;66.50;;;;;13.85;35.58;99410.66;4993566;28;9639;-81
2023/12/26 08:39:50;;;;;;;;;84.00;76.00;;;;;13.92;35.78;99408.66;5026044;28;9804;-78
2023/12/26 08:42:19;;;;;;;;;86.00;77.00;;;;;13.99;35.86;99407.50;5009265;28;10600;-78
2023/12/26 08:44:48;;;;;;;;;86.75;78.00;;;;;14.05;35.78;99407.31;4970762;28;10912;-81
2023/12/26 08:47:17;;;;;;;;;91.50;84.25;;;;;14.12;36.25;99399.97;4986741;28;11133;-80
2023/12/26 08:49:48;;;;;;;;;91.25;85.00;;;;;14.15;35.97;99402.53;4986111;28;11913;-79
2023/12/26 08:52:18;;;;;;;;;82.50;76.50;;;;;14.19;35.77;99404.13;4954506;28;11310;-78
2023/12/26 08:54:47;;;;;;;;;81.75;72.25;;;;;14.21;35.39;99397.00;4977629;28;10499;-80
2023/12/26 08:57:16;;;;;;;;;78.25;69.50;;;;;14.21;34.87;99398.78;4989848;28;10165;-79
2023/12/26 08:59:46;;;;;;;;;81.50;76.25;;;;;14.21;35.05;99406.72;4990219;28;10377;-77
2023/12/26 09:02:15;;;;;;;;;83.00;80.00;;;;;14.22;35.37;99409.28;5006511;28;11247;-78
2023/12/26 09:04:44;;;;;;;;;95.25;82.25;;;;;14.27;35.35;99417.06;4990327;28;10583;-78
2023/12/26 09:07:15;;;;;;;;;84.00;82.50;;;;;14.31;35.17;99409.88;4990073;28;11000;-77
2023/12/26 09:09:44;;;;;;;;;83.50;77.75;;;;;14.35;34.85;99406.19;4982352;28;11100;-78
2023/12/26 09:12:13;;;;;;;;;83.25;81.00;;;;;14.37;34.96;99412.25;4978962;28;11137;-79
2023/12/26 09:14:42;;;;;;;;;88.25;84.25;;;;;14.41;34.91;99406.81;4977914;28;11230;-79
2023/12/26 09:17:11;;;;;;;;;89.25;82.25;;;;;14.43;35.16;99401.44;5023898;28;11142;-78
2023/12/26 09:19:41;;;;;;;;;87.25;81.75;;;;;14.48;35.15;99404.78;4979941;28;11091;-79
2023/12/26 09:22:10;;;;;;;;;90.00;86.00;;;;;14.52;35.19;99405.50;4990735;28;11177;-79
2023/12/26 09:24:42;;;;;;;;;92.75;87.00;;;;;14.58;35.35;99399.97;4974177;28;11159;-79
2023/12/26 09:27:11;;;;;;;;;95.50;91.00;;;;;14.56;35.24;99391.25;4990614;28;12236;-79
2023/12/26 09:29:41;;;;;;;;;97.50;93.00;;;;;14.60;35.19;99401.66;4974080;28;11611;-81
2023/12/26 09:32:10;;;;;;;;;93.75;90.25;;;;;14.60;35.47;99396.38;4994347;28;11618;-78
2023/12/26 09:34:40;;;;;;;;;108.00;102.00;;;;;14.61;35.24;99390.13;4974474;28;11406;-78
2023/12/26 09:37:09;;;;;;;;;99.75;95.25;;;;;14.60;35.41;99391.06;4974119;28;11633;-79
2023/12/26 09:39:40;;;;;;;;;98.00;93.25;;;;;14.61;35.46;99387.50;5031808;28;11686;-79
2023/12/26 09:42:11;;;;;;;;;105.25;100.25;;;;;14.64;35.59;99383.84;5033448;28;11653;-79
2023/12/26 09:44:41;;;;;;;;;106.50;102.00;;;;;14.67;35.50;99383.72;5016628;28;11610;-79
2023/12/26 09:47:11;;;;;;;;;103.25;97.25;;;;;14.70;35.43;99390.69;4966045;28;11588;-80
2023/12/26 09:49:43;;;;;;;;;99.75;95.00;;;;;14.75;35.23;99383.47;5013609;28;11623;-79
2023/12/26 09:52:13;;;;;;;;;100.50;92.25;;;;;14.70;34.78;99386.28;4996594;28;11566;-79
2023/12/26 09:54:47;;;;;;;;;110.25;101.50;;;;;14.78;35.39;99370.97;5012732;28;11562;-76
2023/12/26 09:57:16;;;;;;;;;100.50;97.50;;;;;14.81;35.31;99373.50;5030670;28;11607;-79
2023/12/26 09:59:47;;;;;;;;;104.50;99.50;;;;;14.86;35.39;99368.00;5069376;28;11700;-78
2023/12/26 10:02:16;;;;;;;;;109.50;105.50;;;;;14.89;35.32;99369.69;5080761;28;11673;-79
2023/12/26 10:04:46;;;;;;;;;106.50;97.75;;;;;14.91;35.13;99366.03;5069367;28;11694;-79
2023/12/26 10:07:17;;;;;;;;;95.00;90.50;;;;;14.96;35.23;99356.13;5053324;28;11648;-79
2023/12/26 10:09:48;;;;;;;;;112.50;107.75;;;;;15.01;35.50;99359.41;5069311;28;12330;-79
2023/12/26 10:12:19;;;;;;;;;118.00;109.75;;;;;15.01;35.22;99362.06;5028967;28;11707;-80
2023/12/26 10:14:49;;;;;;;;;117.00;109.50;;;;;15.05;34.93;99361.00;5029284;28;11746;-77
2023/12/26 10:17:18;;;;;;;;;113.25;106.25;;;;;15.09;34.79;99356.44;5029722;28;11826;-78
2023/12/26 10:19:48;;;;;;;;;115.75;107.50;;;;;15.08;34.83;99356.53;5031882;28;11744;-78
2023/12/26 10:22:18;;;;;;;;;115.00;109.25;;;;;15.11;34.81;99346.63;5014242;28;11787;-79
2023/12/26 10:24:49;;;;;;;;;118.50;109.50;;;;;15.15;34.75;99339.44;4999526;28;11656;-78
2023/12/26 10:27:18;;;;;;;;;100.25;94.50;;;;;15.16;34.96;99349.97;5031605;28;12482;-79
2023/12/26 10:29:51;;;;;;;;;107.00;106.75;;;;;15.24;34.63;99344.31;5015376;28;12380;-78
2023/12/26 10:32:24;;;;;;;;;115.00;110.75;;;;;15.25;35.06;99336.31;5047696;28;11636;-79
2023/12/26 10:34:54;;;;;;;;;113.75;107.00;;;;;15.31;34.55;99334.34;5047941;28;11680;-81
2023/12/26 10:37:23;;;;;;;;;112.00;101.75;;;;;15.28;34.14;99339.75;5032512;28;12512;-80
2023/12/26 10:39:54;;;;;;;;;119.50;107.75;;;;;15.31;34.22;99339.63;5015687;28;11681;-82
2023/12/26 10:42:23;;;;;;;;;109.50;106.00;;;;;15.36;34.50;99332.31;5001576;28;11639;-79
2023/12/26 10:44:59;;;;;;;;;106.00;101.00;;;;;15.41;34.45;99330.34;5055215;28;11705;-78
2023/12/26 10:47:29;;;;;;;;;97.50;93.75;;;;;15.41;34.00;99331.19;5037753;28;11759;-79
2023/12/26 10:50:00;;;;;;;;;106.50;100.50;;;;;15.41;33.54;99331.19;5072066;28;11563;-80
2023/12/26 10:52:31;;;;;;;;;103.25;95.25;;;;;15.49;33.83;99330.88;5071567;28;11562;-77
2023/12/26 10:55:04;;;;;;;;;104.00;97.00;;;;;15.59;33.71;99331.31;5082630;28;11537;-79
2023/12/26 10:57:36;;;;;;;;;96.00;92.75;;;;;15.63;33.77;99335.59;5073047;28;11642;-79
2023/12/26 11:00:50;;;;;;;;;94.75;93.50;;;;;15.81;33.42;99325.91;5069005;28;11557;-80
2023/12/26 13:51:28;;;;;;;;;64.25;51.00;;;;;13.39;41.97;99338.38;5083214;28;9162;-80
2023/12/26 13:53:58;;;;;;;;;69.75;54.50;;;;;13.22;42.50;99346.00;5050014;28;8850;-79
2023/12/26 13:57:06;;;;;;;;;65.25;53.00;;;;;12.84;43.62;99359.59;5065129;28;8905;-80
2023/12/26 14:00:13;;;;;;;;;66.00;52.00;;;;;12.03;46.37;99360.38;5068986;28;8852;-77
2023/12/26 14:03:20;;;;;;;;;61.50;50.50;;;;;11.80;47.04;99366.25;5033523;28;8941;-77
2023/12/26 14:05:50;;;;;;;;;66.00;52.50;;;;;11.86;47.03;99365.25;5012942;28;8975;-79
2023/12/26 14:08:19;;;;;;;;;65.25;50.75;;;;;11.86;46.90;99370.53;4996269;28;8966;-78
2023/12/26 14:10:50;;;;;;;;;57.75;46.25;;;;;11.89;47.21;99362.53;5029419;28;8860;-78
2023/12/26 14:13:56;;;;;;;;;60.25;48.25;;;;;11.52;48.23;99376.72;5012766;28;8980;-77
2023/12/26 14:16:25;;;;;;;;;61.75;49.25;;;;;11.33;48.59;99374.59;5012883;28;8856;-78
2023/12/26 14:18:54;;;;;;;;;47.50;40.00;;;;;11.24;49.14;99368.69;4979601;28;8967;-80
2023/12/26 14:22:01;;;;;;;;;56.75;46.00;;;;;11.69;47.67;99365.72;5012957;28;8856;-78
2023/12/26 14:25:08;;;;;;;;;58.25;47.75;;;;;12.12;46.34;99353.94;5012277;28;8869;-79
2023/12/26 14:27:39;;;;;;;;;56.00;45.75;;;;;12.34;45.82;99360.28;5013158;28;9642;-78
2023/12/26 14:30:08;;;;;;;;;54.50;45.50;;;;;12.50;45.57;99358.03;5029283;28;8864;-79